Grant, CO (80448)

7:29 PM MDT on September 04, 2015 (GMT -0600)
RAWS | | Change Station
CLOSE
Current Station
Personal Weather Station
Location: Grant, CO
Elevation: 10200 ft
Nearby Weather Stations

Elev 10200 ft 39.41 °N, 105.75 °W | Updated 35 minutes ago

Overcast
Overcast
49.0 °F
Feels Like 49.0 °F
N
0.0
Wind Variable Wind from North
Gusts 3.0 mph

Today
High -- | Low -- °F
--% Chance of Precip.
Yesterday
High -- | Low -- °F
Precip. -- in
6:33 AM 7:29 PM
Waning Gibbous, 54% visible
Pressure 30.49 in
Visibility 10.0 miles
Clouds Scattered Clouds 2300 ft
Mostly Cloudy 3100 ft
Overcast 6000 ft
Dew Point 46.0 °F
Humidity 89%
Rainfall in
Snow Depth Not available.
UV 0 out of 12
Pollen 10.10 out of 12
Air Quality Not available.
Flu Activity Not available.
METAR K0CO 050114Z AUTO 15010KT 10SM SCT023 BKN031 OVC060 05/M01 A3049 RMK AO2 LTG DSNT SW THRU NW
Pressure 30.49 in
Visibility 10.0 miles
Clouds Scattered Clouds 2300 ft
Mostly Cloudy 3100 ft
Overcast 6000 ft
Dew Point 46.0 °F
Humidity 89%
Rainfall in
Snow Depth Not available.
UV 0 out of 12
Pollen 10.10 out of 12
Air Quality Not available.
Flu Activity Not available.
METAR K0CO 050114Z AUTO 15010KT 10SM SCT023 BKN031 OVC060 05/M01 A3049 RMK AO2 LTG DSNT SW THRU NW

10-Day Weather Forecast

×

Almanac

Astronomy

Sep. 04, 2015 Rise Set
Actual Time
Civil Twilight
Nautical Twilight
Astronomical Twilight
Moon
Length of Visible Light
Length of Day
Tomorrow will be .
, % of the Moon is Illuminated

Today's Extremes

State Highs State Lows

Community

WunderPhotos

Upload Photos

1,852,374 photos uploaded!

WunderBlogs® & News

Nearby

Air Quality

  Air Quality AQ Index Pollutant
Not available.

Snow Depth

Station Depth Elevation

Earthquake Activity

City Distance Mag. Time & Date
Minimum magnitude displayed is 2.5.

Coastal Water Temperatures

Place Temperature

Stations

Nearby Weather Stations

Station Location Temp. Windchill Dew Point Humidity Wind Precip. Elev Updated Type